createdAt,value
2023-04-19T00:00:22.092Z,22.00
2023-04-19T00:02:50.808Z,21.40
2023-04-19T00:05:20.304Z,22.60
2023-04-19T00:07:48.352Z,24.60
2023-04-19T00:10:16.378Z,23.60
2023-04-19T00:12:44.330Z,21.80
2023-04-19T00:15:13.978Z,30.20
2023-04-19T00:17:42.040Z,26.60
2023-04-19T00:20:11.668Z,24.60
2023-04-19T00:22:39.630Z,24.80
2023-04-19T00:25:08.253Z,27.40
2023-04-19T00:27:36.179Z,24.60
2023-04-19T00:30:04.382Z,23.20
2023-04-19T00:32:34.246Z,28.00
2023-04-19T00:35:02.209Z,19.80
2023-04-19T00:37:30.140Z,26.20
2023-04-19T00:39:58.102Z,25.80
2023-04-19T00:42:26.332Z,22.00
2023-04-19T00:44:54.299Z,28.60
2023-04-19T00:47:22.335Z,26.20
2023-04-19T00:49:51.917Z,28.80
2023-04-19T00:52:19.919Z,22.80
2023-04-19T00:54:47.892Z,26.20
2023-04-19T00:57:16.715Z,20.80
2023-04-19T00:59:44.650Z,29.00
2023-04-19T01:02:12.807Z,23.40
2023-04-19T01:04:40.796Z,19.80
2023-04-19T01:07:10.247Z,24.20
2023-04-19T01:09:41.942Z,25.60
2023-04-19T01:12:10.002Z,24.80
2023-04-19T01:14:37.949Z,26.00
2023-04-19T01:17:05.963Z,18.80
2023-04-19T01:19:34.919Z,15.60
2023-04-19T01:22:04.257Z,24.20
2023-04-19T01:24:33.778Z,23.20
2023-04-19T01:27:02.347Z,27.60
2023-04-19T01:29:30.392Z,26.20
2023-04-19T01:31:58.594Z,19.20
2023-04-19T01:34:26.613Z,29.40
2023-04-19T01:36:54.607Z,24.40
2023-04-19T01:39:22.664Z,24.20
2023-04-19T01:41:52.033Z,27.80
2023-04-19T01:44:19.963Z,30.40
2023-04-19T01:46:48.326Z,30.00
2023-04-19T01:49:16.259Z,29.80
2023-04-19T01:51:44.190Z,25.40
2023-04-19T01:54:12.197Z,25.00
2023-04-19T01:56:40.312Z,29.20
2023-04-19T01:59:09.644Z,29.80
2023-04-19T02:01:37.847Z,27.40
2023-04-19T02:04:05.957Z,34.00
2023-04-19T02:06:34.042Z,27.20
2023-04-19T02:09:02.147Z,34.00
2023-04-19T02:11:30.098Z,34.40
2023-04-19T02:13:58.038Z,40.20
2023-04-19T02:16:27.422Z,30.40
2023-04-19T02:18:55.405Z,25.60
2023-04-19T02:21:23.341Z,25.00
2023-04-19T02:23:51.337Z,28.60
2023-04-19T02:26:20.481Z,24.20
2023-04-19T02:28:48.927Z,29.80
2023-04-19T02:31:17.074Z,30.80
2023-04-19T02:33:47.420Z,29.20
2023-04-19T02:36:15.665Z,21.20
2023-04-19T02:38:43.639Z,31.00
2023-04-19T02:41:11.630Z,33.80
2023-04-19T02:43:39.501Z,27.40
2023-04-19T02:46:07.653Z,38.60
2023-04-19T02:48:35.689Z,30.00
2023-04-19T02:51:05.377Z,38.80
2023-04-19T02:53:33.753Z,15.20
2023-04-19T02:56:02.489Z,30.40
2023-04-19T02:58:30.454Z,22.60
2023-04-19T03:00:58.588Z,28.20
2023-04-19T03:03:26.958Z,27.00
2023-04-19T03:05:54.928Z,30.00
2023-04-19T03:08:24.434Z,32.00
2023-04-19T03:10:52.682Z,31.80
2023-04-19T03:13:20.602Z,30.60
2023-04-19T03:15:48.765Z,23.00
2023-04-19T03:18:17.369Z,46.40
2023-04-19T03:20:45.693Z,36.60
2023-04-19T03:23:13.649Z,32.40
2023-04-19T03:25:43.037Z,33.60
2023-04-19T03:28:10.996Z,30.00
2023-04-19T03:30:39.204Z,34.80
2023-04-19T03:33:07.210Z,38.60
2023-04-19T03:35:35.358Z,34.80
2023-04-19T03:38:03.368Z,30.60
2023-04-19T03:40:31.881Z,33.80
2023-04-19T03:43:01.263Z,34.20
2023-04-19T03:45:29.357Z,34.40
2023-04-19T03:47:57.722Z,29.00
2023-04-19T03:50:26.075Z,47.20
2023-04-19T03:52:54.681Z,35.60
2023-04-19T03:55:22.725Z,30.00
2023-04-19T03:57:52.525Z,58.60
2023-04-19T04:00:22.846Z,45.80
2023-04-19T04:02:51.004Z,39.60
2023-04-19T04:05:19.324Z,31.80
2023-04-19T04:07:47.314Z,34.20
2023-04-19T04:10:15.256Z,54.60
2023-04-19T04:12:43.231Z,55.00
2023-04-19T04:15:12.309Z,42.20
2023-04-19T04:17:41.715Z,39.60
2023-04-19T04:20:13.688Z,46.40
2023-04-19T04:22:43.420Z,33.00
2023-04-19T04:25:12.542Z,26.80
2023-04-19T04:27:40.511Z,34.00
2023-04-19T04:30:09.808Z,29.40
2023-04-19T04:32:38.381Z,47.00
2023-04-19T04:35:09.330Z,54.20
2023-04-19T04:37:37.806Z,33.80
2023-04-19T04:40:06.523Z,51.80
2023-04-19T04:42:34.703Z,30.40
2023-04-19T04:45:03.375Z,20.40
2023-04-19T04:47:33.134Z,22.60
2023-04-19T04:50:01.172Z,21.60
2023-04-19T04:52:30.836Z,20.60
2023-04-19T04:54:58.805Z,8.00
2023-04-19T04:57:26.991Z,12.20
2023-04-19T04:59:56.420Z,11.40
2023-04-19T05:02:25.753Z,12.60
2023-04-19T05:04:53.774Z,14.80
2023-04-19T05:07:21.706Z,10.80
2023-04-19T05:09:51.005Z,11.60
2023-04-19T05:12:18.938Z,8.80
2023-04-19T05:14:47.623Z,9.80
2023-04-19T05:17:15.527Z,0.00
2023-04-19T05:19:43.529Z,9.20
2023-04-19T05:22:11.700Z,9.40
2023-04-19T05:24:41.832Z,10.40
2023-04-19T05:27:11.952Z,10.00
2023-04-19T05:29:40.039Z,9.60
2023-04-19T05:32:08.319Z,9.00
2023-04-19T05:34:40.488Z,3.00
2023-04-19T05:37:08.613Z,9.80
2023-04-19T05:39:36.768Z,2.80
2023-04-19T05:42:05.125Z,11.40
2023-04-19T05:44:34.573Z,12.00
2023-04-19T05:47:02.811Z,7.00
2023-04-19T05:49:31.005Z,9.00
2023-04-19T05:51:58.948Z,10.00
2023-04-19T05:54:28.136Z,13.00
2023-04-19T05:56:56.419Z,17.00
2023-04-19T05:59:25.583Z,17.80
2023-04-19T06:01:56.162Z,16.60
2023-04-19T06:04:25.034Z,14.20
2023-04-19T06:06:53.494Z,17.60
2023-04-19T06:09:21.466Z,15.40
2023-04-19T06:11:51.569Z,21.40
2023-04-19T06:14:20.064Z,20.80
2023-04-19T06:16:48.127Z,19.60
2023-04-19T06:19:17.706Z,23.60
2023-04-19T06:21:46.050Z,29.00
2023-04-19T06:24:14.171Z,14.40
2023-04-19T06:26:42.401Z,29.00
2023-04-19T06:29:10.586Z,15.60
2023-04-19T06:31:38.704Z,11.40
2023-04-19T06:34:06.623Z,12.60
2023-04-19T06:36:37.186Z,10.00
2023-04-19T06:39:05.870Z,8.00
2023-04-19T06:41:33.941Z,13.40
2023-04-19T06:44:01.859Z,10.20
2023-04-19T06:46:29.885Z,10.00
2023-04-19T06:48:58.027Z,13.00
2023-04-19T06:51:26.235Z,10.00
2023-04-19T06:53:55.772Z,15.40
2023-04-19T06:56:42.016Z,12.60
2023-04-19T06:59:10.052Z,22.00
2023-04-19T07:01:38.123Z,27.60
2023-04-19T07:04:06.512Z,31.20
2023-04-19T07:06:34.998Z,20.40
2023-04-19T07:09:04.665Z,34.60
2023-04-19T07:11:32.784Z,31.80
2023-04-19T07:14:01.284Z,19.40
2023-04-19T07:16:29.383Z,20.40
2023-04-19T07:18:57.935Z,18.00
2023-04-19T07:21:28.720Z,21.00
2023-04-19T07:23:56.603Z,29.00
2023-04-19T07:26:25.922Z,22.60
2023-04-19T07:28:53.908Z,16.00
2023-04-19T07:31:21.822Z,15.60
2023-04-19T07:33:49.938Z,15.60
2023-04-19T07:36:17.975Z,12.40
2023-04-19T07:38:45.954Z,10.80
2023-04-19T07:41:13.924Z,13.20
2023-04-19T07:43:43.400Z,12.00
2023-04-19T07:46:11.987Z,5.20
2023-04-19T07:48:40.388Z,10.00
2023-04-19T07:51:11.861Z,9.60
2023-04-19T07:53:39.877Z,10.20
2023-04-19T07:56:09.334Z,8.40
2023-04-19T07:58:38.352Z,7.00
2023-04-19T08:01:07.983Z,11.40
2023-04-19T08:03:36.382Z,7.00
2023-04-19T08:06:05.248Z,7.00
2023-04-19T08:08:34.222Z,3.80
2023-04-19T08:11:03.243Z,7.00
2023-04-19T08:13:31.202Z,9.20
2023-04-19T08:18:32.594Z,10.40
2023-04-19T08:21:00.551Z,8.20
2023-04-19T08:23:37.887Z,11.20
2023-04-19T08:26:13.151Z,7.20
2023-04-19T08:28:41.081Z,9.40
2023-04-19T08:31:08.977Z,10.80
2023-04-19T08:33:42.487Z,8.20
2023-04-19T08:36:11.296Z,9.00
2023-04-19T08:38:44.475Z,9.40
2023-04-19T08:41:15.546Z,7.40
2023-04-19T08:43:43.542Z,8.20
2023-04-19T08:46:12.267Z,7.00
2023-04-19T08:48:41.654Z,7.00
2023-04-19T08:51:09.575Z,7.40
2023-04-19T08:53:41.914Z,8.60
2023-04-19T08:56:27.797Z,9.20
2023-04-19T09:01:44.620Z,4.00
2023-04-19T09:04:31.613Z,8.60
2023-04-19T09:07:02.509Z,5.20
2023-04-19T09:09:37.238Z,8.20
2023-04-19T09:12:17.471Z,9.40
2023-04-19T09:14:57.847Z,3.60
2023-04-19T09:17:29.317Z,6.40
2023-04-19T09:19:59.159Z,7.00
2023-04-19T09:22:27.600Z,7.00
2023-04-19T09:27:29.171Z,3.80
2023-04-19T09:29:57.341Z,8.40
2023-04-19T09:32:25.428Z,6.00
2023-04-19T09:34:54.462Z,8.20
2023-04-19T09:39:55.503Z,5.20
2023-04-19T09:42:38.632Z,8.20
2023-04-19T09:45:29.040Z,7.00
2023-04-19T09:48:07.881Z,7.00
2023-04-19T09:50:50.347Z,6.40
2023-04-19T09:53:20.300Z,8.20
2023-04-19T09:55:59.655Z,7.00
2023-04-19T09:58:41.576Z,3.00
2023-04-19T10:01:16.241Z,4.40
2023-04-19T10:03:46.532Z,6.40
2023-04-19T10:06:39.982Z,6.20
2023-04-19T10:09:06.207Z,5.60
2023-04-19T10:11:39.099Z,6.00
2023-04-19T10:14:08.567Z,6.20
2023-04-19T10:16:36.602Z,4.80
2023-04-19T10:19:06.061Z,7.00
2023-04-19T10:21:34.761Z,4.40
2023-04-19T10:24:02.843Z,3.20
2023-04-19T10:26:32.182Z,4.00
2023-04-19T10:29:00.132Z,5.20
2023-04-19T10:31:28.396Z,3.80
2023-04-19T10:33:57.713Z,4.00
2023-04-19T10:36:27.381Z,4.00
2023-04-19T10:38:55.817Z,5.60
2023-04-19T10:41:23.976Z,4.00
2023-04-19T10:44:11.517Z,4.40
2023-04-19T10:46:41.075Z,3.60
2023-04-19T10:49:09.917Z,4.80
2023-04-19T10:51:39.006Z,6.00
2023-04-19T10:54:07.323Z,4.00
2023-04-19T10:56:59.739Z,5.60
2023-04-19T10:59:30.784Z,6.00
2023-04-19T11:01:59.736Z,3.40
2023-04-19T11:04:59.467Z,5.60
2023-04-19T11:07:50.555Z,4.00
2023-04-19T11:10:53.477Z,4.00
2023-04-19T11:13:21.667Z,1.00
2023-04-19T11:15:51.276Z,5.60
2023-04-19T11:18:20.150Z,1.00
2023-04-19T11:20:48.169Z,4.00
2023-04-19T11:23:18.497Z,6.60
2023-04-19T11:25:48.492Z,1.00
2023-04-19T11:28:17.634Z,3.60
2023-04-19T11:30:46.287Z,3.00
2023-04-19T11:33:15.650Z,5.60
2023-04-19T11:35:43.623Z,7.00
2023-04-19T11:38:11.692Z,4.00
2023-04-19T11:40:40.013Z,5.20
2023-04-19T11:43:07.961Z,5.20
2023-04-19T11:45:39.620Z,2.60
2023-04-19T11:48:08.879Z,5.20
2023-04-19T11:50:39.256Z,5.20
2023-04-19T11:53:14.570Z,3.00
2023-04-19T11:55:46.905Z,1.40
2023-04-19T11:58:29.592Z,6.40
2023-04-19T12:00:58.491Z,4.80
2023-04-19T12:03:27.276Z,3.80
2023-04-19T12:05:57.712Z,6.60
2023-04-19T12:08:35.112Z,6.60
2023-04-19T12:11:07.593Z,7.00
2023-04-19T12:13:41.953Z,3.20
2023-04-19T12:16:10.297Z,6.40
2023-04-19T12:18:45.757Z,6.00
2023-04-19T12:21:28.140Z,6.20
2023-04-19T12:23:58.231Z,4.00
2023-04-19T12:26:28.424Z,0.40
2023-04-19T12:28:56.689Z,6.80
2023-04-19T12:31:24.666Z,6.80
2023-04-19T12:33:52.702Z,5.20
2023-04-19T12:36:22.343Z,4.00
2023-04-19T12:38:50.293Z,3.00
2023-04-19T12:41:18.577Z,4.80
2023-04-19T12:43:46.565Z,6.00
2023-04-19T12:46:19.520Z,3.60
2023-04-19T12:48:52.938Z,3.40
2023-04-19T12:51:22.454Z,3.60
2023-04-19T12:53:50.828Z,6.00
2023-04-19T12:56:18.937Z,7.60
2023-04-19T12:58:46.887Z,6.20
2023-04-19T13:01:15.609Z,4.40
2023-04-19T13:03:43.767Z,6.80
2023-04-19T13:06:13.597Z,6.80
2023-04-19T13:08:46.483Z,3.00
2023-04-19T13:11:40.695Z,7.00
2023-04-19T13:14:08.965Z,3.60
2023-04-19T13:16:36.851Z,6.80
2023-04-19T13:19:04.949Z,6.40
2023-04-19T13:21:33.155Z,9.00
2023-04-19T13:24:02.670Z,4.40
2023-04-19T13:26:30.905Z,6.40
2023-04-19T13:28:59.433Z,6.40
2023-04-19T13:31:34.660Z,5.20
2023-04-19T13:34:04.786Z,7.00
2023-04-19T13:36:33.077Z,4.40
2023-04-19T13:39:08.488Z,6.60
2023-04-19T13:41:36.983Z,7.00
2023-04-19T13:44:25.340Z,6.00
2023-04-19T13:46:59.711Z,6.60
2023-04-19T13:49:27.751Z,7.00
2023-04-19T13:51:56.029Z,6.40
2023-04-19T13:54:25.359Z,7.00
2023-04-19T13:56:53.356Z,6.00
2023-04-19T13:59:22.830Z,9.00
2023-04-19T14:01:50.811Z,6.60
2023-04-19T14:04:19.583Z,6.00
2023-04-19T14:06:48.342Z,6.80
2023-04-19T14:09:16.681Z,4.00
2023-04-19T14:11:46.032Z,7.00
2023-04-19T14:14:14.196Z,6.60
2023-04-19T14:16:42.300Z,8.20
2023-04-19T14:19:10.199Z,7.00
2023-04-19T14:21:38.556Z,6.00
2023-04-19T14:24:07.819Z,3.80
2023-04-19T14:26:36.141Z,8.20
2023-04-19T14:29:06.617Z,4.00
2023-04-19T14:31:34.676Z,3.00
2023-04-19T14:34:02.730Z,6.40
2023-04-19T14:36:30.647Z,4.00
2023-04-19T14:38:58.888Z,6.00
2023-04-19T14:41:32.388Z,9.20
2023-04-19T14:44:00.948Z,7.40
2023-04-19T14:46:30.328Z,7.80
2023-04-19T14:49:03.335Z,6.80
2023-04-19T14:51:31.732Z,9.00
2023-04-19T14:53:59.874Z,6.20
2023-04-19T14:56:27.793Z,6.00
2023-04-19T14:58:55.723Z,5.60
2023-04-19T15:01:23.940Z,7.00
2023-04-19T15:03:53.525Z,6.00
2023-04-19T15:06:21.614Z,9.80
2023-04-19T15:08:49.606Z,8.20
2023-04-19T15:11:18.777Z,6.00
2023-04-19T15:13:46.792Z,3.80
2023-04-19T15:16:15.130Z,6.20
2023-04-19T15:18:43.848Z,7.00
2023-04-19T15:21:13.141Z,4.40
2023-04-19T15:23:42.459Z,4.80
2023-04-19T15:26:10.917Z,4.00
2023-04-19T15:28:38.860Z,3.80
2023-04-19T15:31:08.043Z,3.60
2023-04-19T15:33:36.590Z,6.00
2023-04-19T15:36:04.957Z,4.00
2023-04-19T15:38:34.397Z,4.80
2023-04-19T15:41:02.380Z,4.40
2023-04-19T15:43:32.572Z,3.40
2023-04-19T15:46:00.915Z,7.00
2023-04-19T15:48:29.234Z,6.00
2023-04-19T15:50:57.143Z,4.00
2023-04-19T15:53:25.319Z,4.00
2023-04-19T15:55:55.917Z,6.00
2023-04-19T15:58:24.269Z,1.80
2023-04-19T16:00:52.322Z,6.60
2023-04-19T16:03:20.745Z,6.00
2023-04-19T16:05:51.530Z,6.80
2023-04-19T16:08:20.299Z,6.00
2023-04-19T16:10:48.457Z,5.50
2023-04-19T16:13:18.126Z,4.00
2023-04-19T16:15:46.254Z,3.75
2023-04-19T16:18:14.175Z,6.00
2023-04-19T16:20:42.296Z,5.00
2023-04-19T16:23:10.264Z,3.50
2023-04-19T16:25:38.157Z,3.50
2023-04-19T16:28:06.115Z,13.00
2023-04-19T16:30:35.748Z,3.00
2023-04-19T16:33:03.948Z,3.00
2023-04-19T16:35:32.078Z,1.00
2023-04-19T16:38:00.563Z,2.00
2023-04-19T16:40:28.912Z,6.00
2023-04-19T16:42:57.742Z,1.75
2023-04-19T16:45:25.916Z,4.00
2023-04-19T16:47:55.576Z,7.00
2023-04-19T16:50:23.577Z,3.00
2023-04-19T16:52:51.517Z,4.00
2023-04-19T16:55:21.011Z,3.00
2023-04-19T16:57:49.502Z,6.20
2023-04-19T17:00:18.006Z,3.40
2023-04-19T17:02:46.295Z,4.00
2023-04-19T17:05:16.127Z,4.00
2023-04-19T17:07:44.673Z,3.00
2023-04-19T17:10:12.792Z,3.00
2023-04-19T17:12:41.156Z,6.00
2023-04-19T17:15:09.748Z,6.00
2023-04-19T17:17:38.013Z,5.20
2023-04-19T17:20:06.865Z,3.00
2023-04-19T17:22:36.186Z,3.00
2023-04-19T17:25:04.768Z,4.00
2023-04-19T17:27:33.265Z,4.00
2023-04-19T17:30:01.377Z,3.60
2023-04-19T17:32:29.730Z,6.00
2023-04-19T17:34:57.629Z,2.20
2023-04-19T17:37:25.925Z,4.00
2023-04-19T17:39:55.470Z,6.00
2023-04-19T17:42:23.416Z,4.00
2023-04-19T17:44:51.516Z,5.20
2023-04-19T17:47:20.297Z,3.00
2023-04-19T17:49:48.850Z,6.80
2023-04-19T17:52:16.793Z,6.00
2023-04-19T17:54:44.756Z,6.00
2023-04-19T17:57:14.160Z,3.60
2023-04-19T17:59:42.195Z,6.00
2023-04-19T18:02:10.733Z,7.00
2023-04-19T18:04:39.617Z,3.00
2023-04-19T18:07:07.637Z,5.60
2023-04-19T18:09:35.590Z,6.40
2023-04-19T18:12:04.036Z,4.80
2023-04-19T18:14:33.389Z,3.00
2023-04-19T18:17:02.231Z,9.00
2023-04-19T18:19:30.429Z,6.40
2023-04-19T18:21:58.366Z,4.00
2023-04-19T18:24:26.301Z,6.20
2023-04-19T18:26:54.499Z,6.00
2023-04-19T18:29:24.252Z,6.20
2023-04-19T18:31:53.796Z,4.40
2023-04-19T18:34:21.902Z,7.00
2023-04-19T18:36:49.872Z,3.80
2023-04-19T18:39:18.822Z,6.20
2023-04-19T18:41:46.988Z,6.60
2023-04-19T18:44:39.152Z,5.20
2023-04-19T18:47:04.724Z,4.40
2023-04-19T18:49:32.873Z,5.20
2023-04-19T18:52:00.846Z,5.60
2023-04-19T18:54:28.771Z,9.00
2023-04-19T18:57:21.796Z,4.40
2023-04-19T18:59:45.810Z,7.80
2023-04-19T19:02:15.301Z,7.40
2023-04-19T19:07:34.416Z,12.00
2023-04-19T19:10:10.732Z,6.00
2023-04-19T19:12:44.851Z,7.80
2023-04-19T19:15:12.782Z,9.00
2023-04-19T19:17:42.636Z,7.60
2023-04-19T19:20:11.165Z,6.20
2023-04-19T19:22:39.885Z,9.00
2023-04-19T19:25:09.312Z,3.20
2023-04-19T19:27:37.811Z,7.00
2023-04-19T19:30:07.764Z,6.00
2023-04-19T19:32:36.291Z,7.00
2023-04-19T19:35:08.449Z,8.20
2023-04-19T19:37:36.900Z,8.20
2023-04-19T19:40:06.650Z,9.20
2023-04-19T19:42:34.817Z,9.00
2023-04-19T19:45:03.728Z,4.00
2023-04-19T19:47:35.310Z,5.20
2023-04-19T19:50:50.588Z,9.00
2023-04-19T19:52:53.798Z,3.00
2023-04-19T19:55:22.874Z,6.20
2023-04-19T20:00:42.742Z,9.60
2023-04-19T20:03:10.330Z,6.60
2023-04-19T20:05:40.371Z,10.00
2023-04-19T20:08:10.358Z,9.20
2023-04-19T20:10:38.941Z,7.00
2023-04-19T20:13:07.245Z,12.00
2023-04-19T20:15:35.538Z,6.80
2023-04-19T20:18:03.664Z,9.00
2023-04-19T20:20:31.942Z,8.60
2023-04-19T20:23:01.362Z,6.40
2023-04-19T20:25:31.200Z,9.00
2023-04-19T20:27:59.519Z,9.00
2023-04-19T20:30:27.788Z,9.40
2023-04-19T20:32:55.994Z,6.20
2023-04-19T20:35:24.169Z,7.00
2023-04-19T20:37:52.415Z,7.00
2023-04-19T20:40:23.092Z,7.80
2023-04-19T20:42:51.551Z,5.60
2023-04-19T20:45:20.165Z,9.00
2023-04-19T20:47:48.602Z,7.40
2023-04-19T20:50:16.888Z,9.00
2023-04-19T20:52:44.958Z,6.20
2023-04-19T20:55:13.694Z,9.40
2023-04-19T20:57:43.314Z,9.60
2023-04-19T21:00:12.821Z,9.60
2023-04-19T21:02:40.825Z,8.60
2023-04-19T21:05:09.429Z,7.00
2023-04-19T21:07:37.409Z,7.40
2023-04-19T21:10:06.174Z,7.80
2023-04-19T21:12:34.940Z,7.80
2023-04-19T21:15:05.772Z,7.40
2023-04-19T21:17:33.727Z,6.60
2023-04-19T21:20:02.655Z,7.00
2023-04-19T21:22:30.989Z,4.00
2023-04-19T21:24:58.946Z,6.20
2023-04-19T21:27:27.191Z,8.20
2023-04-19T21:29:55.312Z,4.80
2023-04-19T21:32:26.583Z,7.80
2023-04-19T21:34:54.471Z,9.00
2023-04-19T21:37:22.495Z,6.80
2023-04-19T21:39:50.463Z,7.80
2023-04-19T21:42:18.758Z,6.00
2023-04-19T21:44:46.816Z,6.60
2023-04-19T21:47:14.743Z,7.40
2023-04-19T21:49:44.093Z,3.00
2023-04-19T21:52:12.482Z,4.80
2023-04-19T21:54:40.387Z,7.40
2023-04-19T21:57:08.838Z,6.60
2023-04-19T21:59:38.040Z,4.00
2023-04-19T22:02:06.034Z,4.00
2023-04-19T22:04:34.111Z,8.20
2023-04-19T22:07:03.446Z,6.80
2023-04-19T22:09:31.570Z,7.20
2023-04-19T22:12:00.173Z,7.40
2023-04-19T22:14:28.686Z,5.40
2023-04-19T22:16:56.778Z,6.00
2023-04-19T22:19:24.938Z,9.40
2023-04-19T22:21:53.513Z,9.00
2023-04-19T22:24:23.015Z,5.60
2023-04-19T22:26:53.193Z,7.00
2023-04-19T22:29:21.332Z,6.00
2023-04-19T22:31:49.436Z,4.00
2023-04-19T22:34:17.502Z,6.00
2023-04-19T22:36:45.709Z,7.00
2023-04-19T22:39:13.735Z,4.80
2023-04-19T22:41:43.065Z,6.00
2023-04-19T22:44:11.026Z,6.60
2023-04-19T22:46:39.043Z,7.80
2023-04-19T22:49:07.808Z,8.20
2023-04-19T22:51:36.749Z,6.00
2023-04-19T22:54:05.001Z,7.00
2023-04-19T22:56:33.112Z,5.60
2023-04-19T22:59:02.519Z,7.00
2023-04-19T23:01:30.505Z,3.40
2023-04-19T23:03:58.425Z,4.00
2023-04-19T23:06:28.986Z,1.00
2023-04-19T23:08:57.392Z,4.00
2023-04-19T23:11:25.911Z,6.00
2023-04-19T23:13:54.167Z,7.20
2023-04-19T23:16:24.453Z,6.00
2023-04-19T23:18:52.700Z,6.00
2023-04-19T23:21:20.892Z,4.60
2023-04-19T23:23:48.890Z,5.60
2023-04-19T23:26:16.879Z,3.00
2023-04-19T23:28:44.780Z,5.20
2023-04-19T23:31:12.790Z,3.00
2023-04-19T23:33:42.105Z,5.20
2023-04-19T23:36:10.278Z,6.00
2023-04-19T23:38:38.157Z,5.60
2023-04-19T23:41:06.074Z,9.60
2023-04-19T23:43:34.020Z,5.60
2023-04-19T23:46:01.995Z,6.00
2023-04-19T23:48:29.978Z,2.40
2023-04-19T23:50:59.286Z,4.40
2023-04-19T23:53:27.355Z,5.20
2023-04-19T23:55:55.301Z,5.60
2023-04-19T23:58:23.511Z,2.20
